SAVC/CRD METAR and TAF weather

Enter ICAO airport designator
Station Type Date Time Source
SAVC METAR 2022/01/29 09:00 UTC NOAA

SAVC 290900Z 11003KT 060V150 CAVOK 14/11 Q1006 RMK PP000


Station Type Date Time Source
SAVC Decoded METAR 2022/01/29 09:00 UTC NOAA

Comodoro Rivadavia Aerodrome, Argentina (SAVC) 45-47S 067-30W 46M
Jan 29, 2022 - 04:00 AM EST / 2022.01.29 0900 UTC
Wind: from the ESE (110 degrees) at 3 MPH (3 KT) (direction variable):0
Visibility: greater than 7 mile(s):0
Temperature: 57 F (14 C)
Dew Point: 51 F (11 C)
Relative Humidity: 82%
Pressure (altimeter): 29.71 in. Hg (1006 hPa)
ob: SAVC 290900Z 11003KT 060V150 CAVOK 14/11 Q1006 RMK PP000
cycle: 9

Station Type Date Time Source
SAVC TAF 2022/01/29 06:18 UTC NOAA

TAF SAVC 290500Z 2906/3006 VRB05KT 9999 SCT007 BKN010 TX31/2919Z TN16/2910Z PROB30
TEMPO 2906/2910 VRB05KT 5000 BR OVC006
BECMG 2910/2912 34015KT SCT030 BKN080
BECMG 2919/2921 29020G30KT

Example: see airport list